Time;durP1;ratioP1;P1;durP2;ratioP2;P2;SDS_P1;SDS_P2;PMS_P1;PMS_P2;Temp;Humidity;BMP_temperature;BMP_pressure;BME280_temperature;BME280_humidity;BME280_pressure;Samples;Min_cycle;Max_cycle;Signal;HPM_P1;HPM_P2
2023/12/10 00:02:21;;;;;;;1.37;0.87;;;6.30;63.30;;;;;;4970170;28;46578;-69
2023/12/10 00:04:47;;;;;;;2.00;1.03;;;6.40;63.20;;;;;;4973286;28;46435;-70
2023/12/10 00:07:13;;;;;;;1.77;1.23;;;6.40;63.10;;;;;;4968692;28;46475;-72
2023/12/10 00:09:38;;;;;;;1.50;1.20;;;6.40;63.20;;;;;;4953374;28;46519;-70
2023/12/10 00:12:04;;;;;;;2.20;1.37;;;6.40;63.40;;;;;;4968943;28;46797;-71
2023/12/10 00:14:30;;;;;;;1.73;1.20;;;6.50;63.30;;;;;;4969056;28;46605;-71
2023/12/10 00:16:55;;;;;;;3.10;1.07;;;6.50;63.40;;;;;;4968525;28;46637;-70
2023/12/10 00:19:21;;;;;;;1.80;1.20;;;6.50;63.40;;;;;;4969206;28;46465;-70
2023/12/10 00:21:47;;;;;;;2.30;1.50;;;6.50;63.50;;;;;;4970237;28;46351;-71
2023/12/10 00:24:13;;;;;;;3.37;1.50;;;6.50;63.50;;;;;;4970430;28;47342;-71
2023/12/10 00:26:38;;;;;;;1.83;1.10;;;6.50;63.40;;;;;;4969397;28;46791;-70
2023/12/10 00:29:04;;;;;;;2.00;1.20;;;6.30;63.60;;;;;;4966175;28;46643;-71
2023/12/10 00:31:30;;;;;;;1.50;1.20;;;6.10;64.70;;;;;;4965837;28;46844;-71
2023/12/10 00:33:55;;;;;;;2.20;1.40;;;6.10;65.00;;;;;;4970598;28;46457;-71
2023/12/10 00:36:21;;;;;;;3.37;1.20;;;6.20;64.80;;;;;;4967902;28;46588;-71
2023/12/10 00:38:47;;;;;;;2.70;1.30;;;6.30;64.60;;;;;;4967755;28;46451;-71
2023/12/10 00:41:12;;;;;;;2.07;1.20;;;6.30;64.40;;;;;;4967006;28;46566;-71
2023/12/10 00:43:40;;;;;;;1.73;1.27;;;6.30;64.40;;;;;;4967611;28;46985;-70
2023/12/10 00:46:06;;;;;;;3.83;1.30;;;6.30;64.50;;;;;;4968943;28;46371;-71
2023/12/10 00:48:33;;;;;;;2.40;1.10;;;6.30;64.50;;;;;;4971481;28;46475;-71
2023/12/10 00:50:59;;;;;;;2.17;1.13;;;6.40;64.50;;;;;;4968585;28;45879;-71
2023/12/10 00:53:25;;;;;;;1.80;1.00;;;6.40;64.50;;;;;;4971865;28;46512;-70
2023/12/10 00:55:51;;;;;;;1.57;1.10;;;6.40;64.60;;;;;;4969580;28;46511;-70
2023/12/10 00:58:17;;;;;;;1.27;0.80;;;6.40;64.50;;;;;;4967098;28;46802;-71
2023/12/10 01:00:42;;;;;;;2.40;0.90;;;6.40;64.60;;;;;;4970618;28;46510;-71
2023/12/10 01:03:08;;;;;;;2.33;1.00;;;6.50;64.60;;;;;;4969310;28;46502;-70
2023/12/10 01:05:34;;;;;;;1.30;0.80;;;6.50;64.60;;;;;;4967676;28;46472;-70
2023/12/10 01:08:00;;;;;;;2.30;1.10;;;6.50;64.60;;;;;;4964973;28;46429;-71
2023/12/10 01:10:26;;;;;;;2.17;0.80;;;6.50;64.50;;;;;;4969634;28;46707;-71
2023/12/10 01:12:52;;;;;;;1.60;0.80;;;6.50;64.50;;;;;;4954449;28;46374;-71
2023/12/10 01:15:29;;;;;;;4.17;1.00;;;6.50;64.50;;;;;;4952045;28;47320;-71
2023/12/10 01:18:00;;;;;;;1.40;0.80;;;6.40;64.50;;;;;;4950339;28;46845;-70
2023/12/10 01:20:31;;;;;;;3.30;1.10;;;6.40;64.50;;;;;;4970566;28;46419;-71
2023/12/10 01:22:57;;;;;;;1.53;0.90;;;6.40;64.50;;;;;;4968348;28;47071;-71
2023/12/10 01:25:26;;;;;;;4.97;0.90;;;6.40;64.40;;;;;;4966464;28;46749;-71
2023/12/10 01:27:53;;;;;;;1.47;0.90;;;6.30;64.40;;;;;;4967239;28;46722;-69
2023/12/10 01:30:23;;;;;;;2.80;1.00;;;6.10;65.00;;;;;;4967049;28;46416;-71
2023/12/10 01:32:53;;;;;;;4.07;0.97;;;5.90;66.00;;;;;;4967368;28;47052;-71
2023/12/10 01:35:19;;;;;;;2.20;0.90;;;5.80;67.10;;;;;;4969011;28;46633;-70
2023/12/10 01:37:44;;;;;;;1.40;0.80;;;5.70;67.90;;;;;;4969585;28;46551;-71
2023/12/10 01:40:11;;;;;;;4.80;1.00;;;5.80;68.00;;;;;;4966250;28;46622;-70
2023/12/10 01:42:37;;;;;;;6.03;0.90;;;5.90;67.40;;;;;;4968401;28;47574;-70
2023/12/10 01:45:05;;;;;;;1.60;0.80;;;6.00;66.90;;;;;;4966439;28;46478;-71
2023/12/10 01:47:34;;;;;;;3.40;1.07;;;6.10;66.40;;;;;;4964723;28;46608;-71
2023/12/10 01:50:04;;;;;;;2.50;0.80;;;6.10;66.20;;;;;;4965943;28;46761;-70
2023/12/10 01:52:31;;;;;;;3.27;0.80;;;6.10;66.00;;;;;;4965713;28;46445;-71
2023/12/10 01:54:58;;;;;;;3.47;1.00;;;6.10;66.00;;;;;;4969079;28;46428;-71
2023/12/10 01:57:27;;;;;;;2.93;1.17;;;6.10;66.20;;;;;;4964810;28;46415;-70
2023/12/10 01:59:53;;;;;;;3.10;0.90;;;6.00;66.10;;;;;;4967207;28;46654;-70
2023/12/10 02:02:20;;;;;;;1.87;0.80;;;6.00;66.20;;;;;;4966845;28;47120;-71
2023/12/10 02:04:46;;;;;;;5.97;1.00;;;6.00;66.40;;;;;;4970978;28;46438;-71
2023/12/10 02:07:12;;;;;;;1.23;0.70;;;6.00;66.40;;;;;;4967520;28;46533;-70
2023/12/10 02:09:37;;;;;;;1.53;0.80;;;5.90;66.40;;;;;;4968971;28;46406;-71
2023/12/10 02:12:04;;;;;;;1.40;0.73;;;5.90;66.60;;;;;;4966209;28;46147;-71
2023/12/10 02:14:29;;;;;;;2.07;0.70;;;5.90;66.60;;;;;;4967433;28;46447;-71
2023/12/10 02:16:55;;;;;;;1.90;0.80;;;5.90;66.50;;;;;;4969272;28;46541;-70
2023/12/10 02:19:21;;;;;;;4.47;1.57;;;5.90;66.40;;;;;;4967118;28;46783;-70
2023/12/10 02:21:50;;;;;;;3.67;0.90;;;5.90;66.50;;;;;;4967821;28;46422;-70
2023/12/10 02:24:22;;;;;;;4.70;0.80;;;5.90;66.60;;;;;;4966542;28;46422;-70
2023/12/10 02:26:48;;;;;;;2.50;0.97;;;5.80;66.60;;;;;;4969564;28;46363;-71
2023/12/10 02:29:13;;;;;;;4.23;0.70;;;5.80;66.50;;;;;;4967411;28;46375;-71
2023/12/10 02:31:39;;;;;;;2.27;0.90;;;5.80;66.50;;;;;;4967996;28;46176;-69
2023/12/10 02:34:05;;;;;;;1.93;0.60;;;5.90;66.40;;;;;;4967235;28;46940;-70
2023/12/10 02:36:31;;;;;;;6.43;0.97;;;5.90;66.30;;;;;;4967210;28;46442;-70
2023/12/10 02:38:57;;;;;;;1.33;0.70;;;5.90;66.30;;;;;;4968287;28;46497;-70
2023/12/10 02:41:22;;;;;;;2.40;0.80;;;5.90;66.40;;;;;;4967481;28;46437;-71
2023/12/10 02:43:48;;;;;;;3.93;1.00;;;5.90;66.40;;;;;;4958236;28;46726;-70
2023/12/10 02:46:13;;;;;;;1.90;0.90;;;5.80;66.40;;;;;;4963678;28;46472;-70
2023/12/10 02:48:39;;;;;;;1.83;0.70;;;5.80;66.50;;;;;;4968356;28;46799;-70
2023/12/10 02:51:05;;;;;;;2.00;1.20;;;5.80;66.50;;;;;;4965255;28;47130;-71
2023/12/10 02:53:31;;;;;;;1.70;0.87;;;5.70;66.50;;;;;;4965924;28;46483;-70
2023/12/10 02:55:57;;;;;;;4.00;1.00;;;5.70;66.50;;;;;;4965848;28;46499;-70
2023/12/10 02:58:23;;;;;;;4.80;1.20;;;5.70;66.70;;;;;;4968890;28;46855;-71
2023/12/10 03:00:48;;;;;;;4.03;1.00;;;5.50;66.80;;;;;;4965959;28;46494;-70
2023/12/10 03:03:14;;;;;;;3.33;1.10;;;5.50;67.10;;;;;;4968544;28;46754;-70
2023/12/10 03:05:40;;;;;;;2.87;0.80;;;5.40;67.00;;;;;;4966436;28;46433;-70
2023/12/10 03:08:05;;;;;;;7.00;1.10;;;5.40;67.00;;;;;;4969643;28;46391;-70
2023/12/10 03:10:31;;;;;;;4.00;1.10;;;5.40;67.10;;;;;;4968686;28;46413;-70
2023/12/10 03:12:56;;;;;;;6.33;1.47;;;5.30;66.80;;;;;;4966832;28;46447;-70
2023/12/10 03:15:22;;;;;;;4.27;1.00;;;5.40;67.00;;;;;;4968302;28;46411;-70
2023/12/10 03:17:48;;;;;;;3.07;0.80;;;5.30;67.00;;;;;;4970486;28;46137;-69
2023/12/10 03:20:13;;;;;;;2.10;0.90;;;5.20;66.90;;;;;;4972426;28;46384;-70
2023/12/10 03:22:39;;;;;;;5.37;1.00;;;5.20;67.00;;;;;;4970906;28;46414;-69
2023/12/10 03:25:05;;;;;;;3.50;0.90;;;5.20;67.00;;;;;;4972779;28;46675;-69
2023/12/10 03:27:31;;;;;;;4.33;1.10;;;5.20;67.00;;;;;;4969860;28;46565;-69
2023/12/10 03:29:56;;;;;;;6.93;1.27;;;5.10;67.00;;;;;;4972008;28;47617;-69
2023/12/10 03:32:22;;;;;;;3.40;1.10;;;5.20;67.00;;;;;;4971551;28;46522;-70
2023/12/10 03:34:48;;;;;;;4.60;1.43;;;5.20;67.00;;;;;;4971452;28;46914;-69
2023/12/10 03:37:14;;;;;;;4.90;1.30;;;5.20;66.90;;;;;;4973289;28;46401;-70
2023/12/10 03:39:39;;;;;;;5.10;1.07;;;5.20;66.90;;;;;;4968673;28;47316;-70
2023/12/10 03:42:05;;;;;;;10.07;1.20;;;5.10;66.80;;;;;;4970352;28;46394;-70
2023/12/10 03:44:32;;;;;;;5.83;1.23;;;5.10;66.90;;;;;;4971267;28;45891;-70
2023/12/10 03:47:01;;;;;;;4.50;1.40;;;5.10;66.80;;;;;;4968934;28;46633;-69
2023/12/10 03:49:28;;;;;;;5.57;1.27;;;5.10;66.90;;;;;;4972177;28;47251;-70
2023/12/10 03:51:57;;;;;;;4.27;1.00;;;5.10;66.80;;;;;;4970789;28;46444;-69
2023/12/10 03:54:23;;;;;;;7.10;1.80;;;5.10;66.70;;;;;;4969311;28;46441;-71
2023/12/10 03:56:48;;;;;;;6.20;1.30;;;5.20;66.60;;;;;;4955159;28;46656;-70
2023/12/10 03:59:14;;;;;;;7.10;1.40;;;5.30;66.50;;;;;;4968833;28;46315;-69
2023/12/10 04:01:43;;;;;;;6.23;1.40;;;5.40;66.30;;;;;;4971073;28;46405;-69
2023/12/10 04:04:09;;;;;;;5.53;1.70;;;5.50;66.10;;;;;;4967521;28;46717;-70
2023/12/10 04:06:39;;;;;;;8.10;1.23;;;5.50;66.00;;;;;;4968185;28;46669;-70
2023/12/10 04:09:05;;;;;;;5.30;1.20;;;5.50;65.90;;;;;;4971680;28;47121;-70
2023/12/10 04:11:31;;;;;;;3.53;1.10;;;5.50;65.80;;;;;;4967406;28;45964;-69
2023/12/10 04:13:56;;;;;;;7.13;1.97;;;5.50;65.80;;;;;;4971256;28;46644;-70
2023/12/10 04:16:26;;;;;;;5.83;1.50;;;5.60;65.90;;;;;;4971477;28;46854;-70
2023/12/10 04:18:52;;;;;;;5.97;1.20;;;5.60;65.80;;;;;;4961168;28;46507;-70
2023/12/10 04:21:22;;;;;;;4.90;1.57;;;5.70;65.70;;;;;;4969034;28;46682;-70
2023/12/10 04:23:47;;;;;;;8.40;1.80;;;5.70;65.40;;;;;;4969067;28;46411;-69
2023/12/10 04:26:14;;;;;;;6.03;1.50;;;5.70;65.30;;;;;;4969494;28;46874;-70
2023/12/10 04:28:40;;;;;;;8.37;1.63;;;5.70;65.40;;;;;;4969264;28;47134;-70
2023/12/10 04:31:06;;;;;;;9.00;1.63;;;5.70;65.60;;;;;;4969896;28;46683;-69
2023/12/10 04:33:32;;;;;;;7.90;1.83;;;5.70;65.80;;;;;;4969321;28;46446;-69
2023/12/10 04:35:57;;;;;;;8.67;1.60;;;5.60;66.10;;;;;;4967469;28;46650;-70
2023/12/10 04:38:23;;;;;;;7.13;2.20;;;5.50;66.20;;;;;;4968995;28;46402;-69
2023/12/10 04:40:49;;;;;;;11.70;1.53;;;5.50;66.40;;;;;;4978528;23;46419;-68
2023/12/10 04:43:14;;;;;;;7.33;1.83;;;5.50;66.10;;;;;;4975474;28;46299;-67
2023/12/10 04:45:41;;;;;;;14.43;2.07;;;5.50;66.20;;;;;;4977436;28;46605;-68
2023/12/10 04:48:07;;;;;;;15.17;2.37;;;5.40;66.20;;;;;;4962572;28;46477;-67
2023/12/10 04:50:32;;;;;;;11.07;1.90;;;5.40;66.40;;;;;;4961505;28;46465;-67
2023/12/10 04:52:58;;;;;;;11.90;2.00;;;5.30;66.50;;;;;;4964128;28;46957;-67
2023/12/10 04:55:24;;;;;;;11.53;2.57;;;5.40;66.60;;;;;;4964465;28;46306;-67
2023/12/10 04:57:50;;;;;;;11.30;2.00;;;5.50;66.40;;;;;;4962992;28;46373;-67
2023/12/10 05:00:16;;;;;;;17.83;2.60;;;5.50;66.20;;;;;;4959477;28;46404;-67
2023/12/10 05:02:41;;;;;;;18.77;2.30;;;5.50;66.10;;;;;;4960514;28;46513;-67
2023/12/10 05:05:08;;;;;;;9.23;2.20;;;5.50;66.30;;;;;;4957471;28;46422;-67
2023/12/10 05:07:34;;;;;;;14.60;2.00;;;5.40;66.30;;;;;;4963040;28;47273;-67
2023/12/10 05:10:00;;;;;;;19.83;3.70;;;5.30;66.70;;;;;;4963435;28;46350;-66
2023/12/10 05:12:26;;;;;;;20.27;3.00;;;5.20;67.00;;;;;;4961374;28;46372;-67
2023/12/10 05:14:52;;;;;;;11.70;1.73;;;5.20;67.30;;;;;;4961956;28;46514;-68
2023/12/10 05:17:17;;;;;;;14.53;2.17;;;5.30;66.90;;;;;;4958816;28;47110;-67
2023/12/10 05:19:43;;;;;;;12.03;2.20;;;5.50;66.60;;;;;;4961271;28;46503;-68
2023/12/10 05:22:09;;;;;;;18.97;3.07;;;5.50;66.20;;;;;;4961078;28;46458;-67
2023/12/10 05:24:34;;;;;;;17.53;2.47;;;5.50;66.10;;;;;;4964884;28;46463;-68
2023/12/10 05:27:00;;;;;;;17.10;2.70;;;5.50;66.10;;;;;;4959800;28;47270;-67
2023/12/10 05:29:25;;;;;;;12.20;2.20;;;5.30;66.40;;;;;;4963074;28;46449;-67
2023/12/10 05:31:51;;;;;;;12.77;1.90;;;5.20;66.90;;;;;;4961006;28;46350;-68
2023/12/10 05:34:16;;;;;;;14.70;2.83;;;5.10;67.00;;;;;;4962110;28;45968;-67
2023/12/10 05:36:42;;;;;;;13.00;2.00;;;5.20;67.00;;;;;;4961283;28;47137;-67
2023/12/10 05:39:08;;;;;;;22.60;2.50;;;5.20;66.70;;;;;;4962520;28;45876;-67
2023/12/10 05:41:34;;;;;;;12.73;2.23;;;5.20;66.50;;;;;;4961357;28;46333;-68
2023/12/10 05:43:59;;;;;;;12.60;2.40;;;5.10;66.60;;;;;;4960962;28;46564;-68
2023/12/10 05:46:25;;;;;;;10.53;2.20;;;5.00;66.90;;;;;;4958802;28;47021;-68
2023/12/10 05:48:50;;;;;;;9.93;1.87;;;5.00;67.00;;;;;;4961250;28;46445;-67
2023/12/10 05:51:16;;;;;;;13.13;2.00;;;4.90;67.10;;;;;;4961956;28;46560;-67
2023/12/10 05:53:42;;;;;;;15.67;2.43;;;4.90;67.30;;;;;;4964584;28;46434;-68
2023/12/10 05:56:08;;;;;;;10.53;2.53;;;4.90;67.40;;;;;;4960717;28;46436;-67
2023/12/10 05:58:34;;;;;;;12.87;2.30;;;4.90;67.30;;;;;;4963252;28;45844;-67
2023/12/10 06:01:00;;;;;;;20.17;2.87;;;5.00;67.30;;;;;;4960721;28;46491;-67
2023/12/10 06:03:27;;;;;;;9.30;2.40;;;4.90;67.00;;;;;;4962194;28;46553;-67
2023/12/10 06:05:52;;;;;;;17.47;2.57;;;5.00;67.00;;;;;;4963011;28;48022;-67
2023/12/10 06:08:18;;;;;;;14.67;2.43;;;5.10;67.80;;;;;;4960300;28;46578;-67
2023/12/10 06:10:44;;;;;;;14.17;2.93;;;5.20;66.20;;;;;;4961562;28;46401;-68
2023/12/10 06:13:13;;;;;;;16.63;2.10;;;5.30;65.80;;;;;;4961233;28;46422;-67
2023/12/10 06:15:39;;;;;;;16.77;2.60;;;5.30;65.70;;;;;;4962714;28;46412;-68
2023/12/10 06:18:05;;;;;;;16.73;2.20;;;5.40;65.60;;;;;;4958661;28;46648;-67
2023/12/10 06:20:30;;;;;;;13.20;2.53;;;5.50;65.50;;;;;;4960495;28;46398;-68
2023/12/10 06:22:56;;;;;;;14.33;1.90;;;5.50;65.50;;;;;;4960782;28;46390;-67
2023/12/10 06:25:21;;;;;;;18.63;3.20;;;5.50;65.40;;;;;;4960674;28;47043;-68
2023/12/10 06:27:47;;;;;;;13.90;2.27;;;5.50;65.40;;;;;;4962057;28;46302;-66
2023/12/10 06:30:13;;;;;;;15.90;2.10;;;5.50;65.50;;;;;;4960795;28;46421;-67
2023/12/10 06:32:39;;;;;;;16.63;2.90;;;5.50;65.60;;;;;;4958179;28;46652;-67
2023/12/10 06:35:05;;;;;;;14.97;2.77;;;5.40;65.60;;;;;;4960559;28;46967;-68
2023/12/10 06:37:32;;;;;;;18.80;2.50;;;5.40;65.70;;;;;;4961249;28;46440;-68
2023/12/10 06:39:57;;;;;;;14.87;2.30;;;5.40;65.80;;;;;;4960314;28;46767;-68
2023/12/10 06:42:23;;;;;;;17.30;2.80;;;5.30;65.80;;;;;;4961836;28;46635;-68
2023/12/10 06:44:48;;;;;;;13.60;2.10;;;5.20;66.20;;;;;;4964447;28;46487;-68
2023/12/10 06:47:14;;;;;;;10.57;2.20;;;5.00;66.40;;;;;;4960573;28;46654;-67
2023/12/10 06:49:40;;;;;;;17.97;2.60;;;4.90;66.90;;;;;;4959832;28;45792;-68
2023/12/10 06:52:06;;;;;;;16.47;2.50;;;4.80;67.10;;;;;;4961896;28;46703;-67
2023/12/10 06:54:31;;;;;;;20.00;2.57;;;4.80;68.40;;;;;;4963693;28;46412;-67
2023/12/10 06:56:57;;;;;;;11.67;2.40;;;4.80;67.30;;;;;;4961321;28;46413;-68
2023/12/10 06:59:22;;;;;;;9.83;2.47;;;4.80;67.20;;;;;;4965129;28;46355;-67
2023/12/10 07:01:48;;;;;;;17.13;2.37;;;4.80;67.10;;;;;;4962139;28;46473;-71
2023/12/10 07:04:13;;;;;;;13.27;1.70;;;4.70;67.20;;;;;;4962168;28;46424;-67
2023/12/10 07:06:39;;;;;;;18.63;3.40;;;4.70;67.20;;;;;;4963645;28;46464;-68
2023/12/10 07:09:06;;;;;;;16.53;2.13;;;4.70;67.30;;;;;;4964799;28;46419;-68
2023/12/10 07:11:32;;;;;;;16.87;2.53;;;4.70;67.30;;;;;;4964100;28;46532;-68
2023/12/10 07:13:58;;;;;;;10.53;2.10;;;4.80;67.00;;;;;;4960372;28;46668;-68
2023/12/10 07:16:24;;;;;;;14.80;2.47;;;5.00;66.70;;;;;;4963408;28;46424;-69
2023/12/10 07:18:49;;;;;;;13.20;2.20;;;5.10;66.30;;;;;;4961607;28;46381;-68
2023/12/10 07:21:15;;;;;;;11.20;2.33;;;5.10;66.10;;;;;;4962660;28;46465;-68
2023/12/10 07:23:41;;;;;;;14.87;2.47;;;5.10;66.00;;;;;;4959717;28;47261;-68
2023/12/10 07:26:06;;;;;;;8.77;2.73;;;5.10;66.10;;;;;;4962944;28;46338;-69
2023/12/10 07:28:32;;;;;;;11.80;2.20;;;5.10;66.10;;;;;;4965827;28;45860;-67
2023/12/10 07:30:57;;;;;;;15.30;2.60;;;5.30;65.80;;;;;;4960345;28;46195;-69
2023/12/10 07:33:23;;;;;;;11.47;2.40;;;5.40;65.70;;;;;;4960467;28;47207;-68
2023/12/10 07:35:48;;;;;;;11.40;2.00;;;5.40;65.60;;;;;;4958416;28;46098;-68
2023/12/10 07:38:14;;;;;;;20.03;2.80;;;5.30;65.60;;;;;;4961497;28;46135;-68
2023/12/10 07:40:40;;;;;;;8.70;2.40;;;5.40;65.70;;;;;;4957016;28;46527;-68
2023/12/10 07:43:26;;;;;;;16.37;2.80;;;5.40;65.50;;;;;;4957772;28;46161;-72
2023/12/10 07:45:52;;;;;;;18.57;3.13;;;5.60;65.20;;;;;;4882015;29;46744;-71
2023/12/10 07:48:19;;;;;;;7.90;2.33;;;5.70;65.00;;;;;;4881073;29;46269;-72
2023/12/10 07:50:44;;;;;;;15.63;2.37;;;5.80;64.70;;;;;;4882871;29;46667;-71
2023/12/10 07:53:10;;;;;;;14.90;2.67;;;5.90;64.60;;;;;;4881669;29;46665;-71
2023/12/10 07:55:36;;;;;;;18.73;2.17;;;6.00;64.50;;;;;;4883260;29;46341;-71
2023/12/10 07:58:01;;;;;;;9.73;2.30;;;6.00;64.60;;;;;;4880493;29;46456;-71
2023/12/10 08:00:27;;;;;;;16.00;2.27;;;6.00;64.70;;;;;;4883133;29;46168;-72
2023/12/10 08:02:53;;;;;;;13.90;2.10;;;6.00;64.60;;;;;;4885800;28;46830;-70
2023/12/10 08:05:18;;;;;;;15.20;2.90;;;6.10;64.60;;;;;;4882936;29;46422;-71
2023/12/10 08:07:44;;;;;;;12.73;2.07;;;6.10;64.60;;;;;;4882876;29;46515;-70
2023/12/10 08:10:10;;;;;;;14.10;3.50;;;6.10;64.60;;;;;;4866857;29;46391;-72
2023/12/10 08:12:35;;;;;;;12.70;2.13;;;6.10;64.80;;;;;;4883350;29;46714;-72
2023/12/10 08:15:01;;;;;;;12.43;2.37;;;6.10;64.60;;;;;;4885628;29;46543;-72
2023/12/10 08:17:27;;;;;;;8.20;1.73;;;6.20;64.70;;;;;;4952755;28;46377;-72
2023/12/10 08:19:53;;;;;;;7.17;2.00;;;6.20;64.70;;;;;;4962907;28;46736;-72
2023/12/10 08:22:18;;;;;;;11.93;2.10;;;6.20;64.60;;;;;;4961525;28;46617;-71
2023/12/10 08:24:44;;;;;;;14.93;2.63;;;6.30;64.60;;;;;;4961600;28;46429;-71
2023/12/10 08:27:10;;;;;;;16.23;3.07;;;6.40;64.40;;;;;;4960978;28;45881;-67
2023/12/10 08:29:35;;;;;;;7.43;2.00;;;6.50;64.30;;;;;;4959041;28;46578;-69
2023/12/10 08:32:01;;;;;;;17.97;2.03;;;6.70;64.00;;;;;;4960630;28;46401;-68
2023/12/10 08:34:27;;;;;;;8.63;2.10;;;6.70;63.50;;;;;;4964533;28;46415;-72
2023/12/10 08:36:52;;;;;;;7.50;2.27;;;6.70;63.40;;;;;;4961800;28;46815;-70
2023/12/10 08:39:18;;;;;;;17.67;3.30;;;6.70;63.50;;;;;;4959276;28;46432;-71
2023/12/10 08:41:43;;;;;;;9.03;2.10;;;6.50;63.50;;;;;;4960416;28;46501;-71
2023/12/10 08:44:10;;;;;;;10.47;2.37;;;6.70;63.60;;;;;;4962289;28;46671;-70
2023/12/10 08:46:35;;;;;;;13.77;2.63;;;6.70;63.40;;;;;;4960766;28;46464;-71
2023/12/10 08:49:01;;;;;;;21.43;6.60;;;6.80;62.70;;;;;;4960143;28;46856;-70
2023/12/10 08:51:26;;;;;;;37.97;15.93;;;6.80;62.70;;;;;;4956594;28;46719;-71
2023/12/10 08:53:52;;;;;;;44.37;16.60;;;6.80;62.60;;;;;;4961007;28;46498;-71
2023/12/10 08:56:18;;;;;;;13.93;4.47;;;6.90;62.70;;;;;;4959948;28;46429;-71
2023/12/10 08:58:43;;;;;;;6.60;2.80;;;7.00;62.80;;;;;;4959617;28;46474;-70
2023/12/10 09:01:09;;;;;;;12.83;2.47;;;7.00;62.60;;;;;;4960319;28;47064;-70
2023/12/10 09:03:34;;;;;;;8.93;2.30;;;7.00;62.50;;;;;;4959781;28;46457;-71
2023/12/10 09:06:00;;;;;;;15.67;3.80;;;7.10;62.30;;;;;;4960251;28;45894;-70
2023/12/10 09:08:26;;;;;;;13.83;2.80;;;7.10;62.10;;;;;;4958491;28;46532;-71
2023/12/10 09:10:53;;;;;;;15.57;2.13;;;7.30;61.80;;;;;;4959672;28;46171;-71
2023/12/10 09:13:18;;;;;;;15.27;2.30;;;7.40;61.50;;;;;;4958427;28;46453;-72
2023/12/10 09:15:44;;;;;;;16.00;2.37;;;7.40;61.30;;;;;;4954384;28;45948;-71
2023/12/10 09:18:10;;;;;;;12.33;2.30;;;7.40;61.10;;;;;;4958493;28;46433;-71
2023/12/10 09:20:36;;;;;;;13.80;3.23;;;7.50;61.00;;;;;;4959863;28;47093;-70
2023/12/10 09:23:02;;;;;;;8.43;2.00;;;7.50;60.90;;;;;;4956641;28;46735;-70
2023/12/10 09:25:27;;;;;;;9.37;2.57;;;7.50;60.70;;;;;;4962112;28;46377;-70
2023/12/10 09:27:53;;;;;;;14.07;2.67;;;7.50;60.40;;;;;;4958920;28;46811;-70
2023/12/10 09:30:19;;;;;;;8.23;2.00;;;7.60;60.20;;;;;;4960782;28;46068;-70
2023/12/10 09:32:44;;;;;;;7.43;1.90;;;7.60;60.00;;;;;;4959204;28;46465;-72
2023/12/10 09:35:10;;;;;;;20.10;2.53;;;7.70;59.60;;;;;;4958659;28;46406;-70
2023/12/10 09:37:37;;;;;;;12.97;2.80;;;7.80;59.40;;;;;;4958378;28;46533;-70
2023/12/10 09:40:04;;;;;;;15.23;5.13;;;7.80;58.90;;;;;;4957659;28;48077;-69
2023/12/10 09:42:29;;;;;;;9.90;2.73;;;7.90;58.90;;;;;;4959274;28;46389;-70
2023/12/10 09:44:55;;;;;;;22.57;8.40;;;7.90;58.80;;;;;;4958264;28;46334;-70
2023/12/10 09:47:23;;;;;;;9.50;2.67;;;7.80;58.30;;;;;;4960467;28;46598;-71
2023/12/10 09:49:53;;;;;;;15.07;3.10;;;7.90;58.10;;;;;;4957060;28;46605;-71
2023/12/10 09:52:19;;;;;;;9.60;2.60;;;7.90;57.60;;;;;;4956248;28;46422;-72
2023/12/10 09:54:45;;;;;;;8.70;2.60;;;8.00;56.60;;;;;;4956813;28;46513;-71
2023/12/10 09:57:11;;;;;;;8.20;2.10;;;8.00;56.10;;;;;;4955455;28;46565;-71
2023/12/10 09:59:37;;;;;;;15.93;3.23;;;8.00;55.80;;;;;;4956037;28;46338;-71
2023/12/10 10:02:05;;;;;;;11.70;2.27;;;8.00;55.70;;;;;;4958753;28;46398;-71
2023/12/10 10:04:31;;;;;;;10.20;1.87;;;8.00;55.40;;;;;;4956821;28;46503;-71
2023/12/10 10:06:57;;;;;;;6.17;1.87;;;8.10;54.90;;;;;;4959651;28;46335;-69
2023/12/10 10:09:23;;;;;;;22.00;2.23;;;8.20;54.40;;;;;;4957678;28;46419;-70
2023/12/10 10:11:50;;;;;;;10.30;2.43;;;8.30;53.80;;;;;;4954230;28;46485;-70
2023/12/10 10:14:19;;;;;;;10.17;2.13;;;8.30;53.50;;;;;;4956869;28;46525;-70
2023/12/10 10:16:48;;;;;;;20.40;1.90;;;8.40;53.00;;;;;;4957923;28;46404;-70
2023/12/10 10:19:14;;;;;;;10.67;2.50;;;8.50;52.10;;;;;;4956683;28;46084;-70
2023/12/10 10:21:44;;;;;;;6.10;2.20;;;8.50;51.30;;;;;;4955712;28;46426;-70
2023/12/10 10:24:11;;;;;;;10.70;2.57;;;8.40;51.20;;;;;;4957667;28;46492;-70
2023/12/10 10:26:37;;;;;;;14.77;2.47;;;8.40;51.20;;;;;;4960697;28;46737;-67
2023/12/10 10:29:05;;;;;;;10.93;2.00;;;8.40;51.20;;;;;;4957514;28;46449;-69
2023/12/10 10:31:33;;;;;;;11.00;1.70;;;8.40;51.20;;;;;;4958066;28;45917;-70
2023/12/10 10:34:06;;;;;;;9.50;1.90;;;8.40;51.20;;;;;;4965434;28;46391;-70
2023/12/10 10:36:32;;;;;;;6.80;1.60;;;8.40;51.20;;;;;;4962287;28;46136;-69
2023/12/10 10:38:58;;;;;;;7.73;2.13;;;8.50;50.70;;;;;;4960584;28;46554;-68
2023/12/10 10:41:25;;;;;;;7.03;1.80;;;8.50;50.30;;;;;;4961643;28;46605;-68
2023/12/10 10:43:51;;;;;;;17.37;2.47;;;8.50;49.20;;;;;;4959821;28;46575;-69
2023/12/10 10:46:20;;;;;;;17.33;2.00;;;8.60;49.10;;;;;;4962345;28;46432;-68
2023/12/10 10:48:51;;;;;;;6.40;1.77;;;8.60;49.10;;;;;;4960127;28;46587;-69
2023/12/10 10:51:24;;;;;;;9.90;2.07;;;8.50;48.70;;;;;;4961461;28;46443;-70
2023/12/10 10:53:54;;;;;;;11.63;2.17;;;8.30;48.90;;;;;;4957811;28;46855;-70
2023/12/10 10:56:20;;;;;;;17.67;2.10;;;8.20;49.00;;;;;;4959138;28;46446;-70
2023/12/10 10:58:45;;;;;;;9.67;2.10;;;8.10;49.20;;;;;;4963454;28;46592;-68
2023/12/10 11:01:40;;;;;;;12.47;2.43;;;8.10;49.20;;;;;;4956607;28;46812;-71
2023/12/10 11:04:07;;;;;;;5.77;1.80;;;8.10;49.20;;;;;;4960630;28;46553;-70
2023/12/10 11:06:36;;;;;;;13.30;3.03;;;8.10;49.00;;;;;;4958885;28;46537;-70
2023/12/10 11:09:01;;;;;;;7.03;1.70;;;8.10;48.80;;;;;;4957656;28;47125;-71
2023/12/10 11:11:27;;;;;;;13.80;2.30;;;8.10;48.80;;;;;;4959542;28;46556;-70
2023/12/10 11:13:54;;;;;;;10.60;2.10;;;8.20;48.60;;;;;;4959202;28;46461;-71
2023/12/10 11:16:22;;;;;;;8.27;2.07;;;8.20;48.50;;;;;;4959929;28;46363;-70
2023/12/10 11:18:57;;;;;;;9.70;1.70;;;8.10;48.30;;;;;;4958889;28;46516;-70
2023/12/10 11:21:23;;;;;;;9.37;1.97;;;8.10;48.30;;;;;;4960343;28;46448;-70
2023/12/10 11:23:48;;;;;;;8.70;2.17;;;8.00;49.20;;;;;;4959625;28;46448;-70
2023/12/10 11:26:15;;;;;;;8.70;1.67;;;8.00;48.30;;;;;;4959080;28;46703;-70
2023/12/10 11:28:44;;;;;;;7.33;1.67;;;8.00;47.90;;;;;;4962096;28;47396;-70
2023/12/10 11:31:10;;;;;;;13.07;2.40;;;8.00;47.60;;;;;;4960888;28;46275;-70
2023/12/10 11:33:41;;;;;;;6.23;1.60;;;8.00;47.40;;;;;;4959748;28;46449;-70
2023/12/10 11:36:08;;;;;;;5.57;1.70;;;8.10;47.30;;;;;;4958718;28;46545;-71
2023/12/10 11:38:34;;;;;;;8.60;1.70;;;8.20;46.80;;;;;;4958224;28;46833;-70
2023/12/10 11:40:59;;;;;;;12.43;2.17;;;8.20;46.30;;;;;;4959152;28;46649;-69
2023/12/10 11:43:26;;;;;;;7.13;1.97;;;8.30;46.10;;;;;;4961508;28;46434;-70
2023/12/10 11:45:54;;;;;;;7.40;1.50;;;8.30;45.90;;;;;;4961058;28;46520;-70
2023/12/10 11:48:20;;;;;;;11.70;2.00;;;8.50;45.50;;;;;;4956726;28;48003;-71
2023/12/10 11:50:48;;;;;;;5.37;1.40;;;8.60;45.30;;;;;;4963351;28;46889;-69
2023/12/10 11:53:16;;;;;;;6.47;2.30;;;8.60;44.90;;;;;;4960860;28;46398;-69
2023/12/10 11:55:43;;;;;;;9.93;1.53;;;8.70;45.00;;;;;;4959230;28;46542;-70
2023/12/10 11:58:08;;;;;;;7.10;1.83;;;8.70;45.00;;;;;;4965601;28;47112;-69
2023/12/10 12:00:35;;;;;;;8.93;1.83;;;8.60;45.00;;;;;;4966175;28;46366;-69
2023/12/10 12:03:05;;;;;;;9.20;2.50;;;8.50;45.00;;;;;;4960175;28;46517;-70
2023/12/10 12:05:31;;;;;;;9.63;1.60;;;8.30;44.80;;;;;;4962979;28;46306;-71
2023/12/10 12:07:59;;;;;;;7.97;1.57;;;8.20;44.50;;;;;;4961039;28;47122;-67
2023/12/10 12:10:34;;;;;;;8.00;2.30;;;8.20;44.90;;;;;;4963205;28;46436;-69
2023/12/10 12:13:00;;;;;;;23.07;2.13;;;8.10;44.70;;;;;;4962348;28;46470;-69
2023/12/10 12:15:26;;;;;;;12.00;2.90;;;8.10;44.70;;;;;;4961131;28;46485;-71
2023/12/10 12:17:51;;;;;;;16.73;2.53;;;8.20;44.70;;;;;;4957319;28;47025;-71
2023/12/10 12:20:26;;;;;;;10.40;1.70;;;8.20;44.40;;;;;;4960707;28;45903;-71
2023/12/10 12:22:52;;;;;;;12.80;1.57;;;8.30;44.30;;;;;;4961545;28;46563;-69
2023/12/10 12:25:18;;;;;;;11.63;1.83;;;8.50;44.20;;;;;;4959639;28;46483;-70
2023/12/10 12:27:44;;;;;;;9.10;1.80;;;8.60;43.80;;;;;;4961755;28;46407;-70
2023/12/10 12:30:10;;;;;;;8.73;2.03;;;8.70;43.60;;;;;;4960687;28;46381;-71
2023/12/10 12:32:36;;;;;;;10.43;1.80;;;8.70;43.00;;;;;;4962069;28;46423;-71
2023/12/10 12:35:02;;;;;;;10.13;2.17;;;8.80;43.00;;;;;;4962302;28;46832;-69
2023/12/10 12:37:28;;;;;;;9.40;1.80;;;8.70;42.70;;;;;;4959383;28;46721;-70
2023/12/10 12:39:55;;;;;;;13.13;1.83;;;8.70;42.90;;;;;;4960963;28;46633;-69
2023/12/10 12:42:22;;;;;;;12.97;2.20;;;8.80;42.80;;;;;;4960833;28;46458;-66
2023/12/10 12:44:49;;;;;;;6.53;1.63;;;8.90;42.90;;;;;;4962345;28;46455;-68
2023/12/10 12:47:15;;;;;;;9.40;1.63;;;9.00;42.60;;;;;;4960366;28;46482;-69
2023/12/10 12:49:41;;;;;;;16.90;2.10;;;8.90;42.40;;;;;;4963694;28;46374;-68